createdAt,value
2018-09-13T00:00:09.878Z,13.67
2018-09-13T00:02:38.166Z,12.47
2018-09-13T00:05:06.480Z,13.40
2018-09-13T00:07:34.764Z,13.73
2018-09-13T00:10:03.016Z,13.13
2018-09-13T00:12:31.323Z,12.63
2018-09-13T00:14:59.635Z,13.50
2018-09-13T00:17:27.891Z,12.60
2018-09-13T00:19:56.125Z,15.30
2018-09-13T00:22:24.393Z,12.00
2018-09-13T00:24:52.658Z,13.10
2018-09-13T00:27:20.921Z,13.00
2018-09-13T00:29:49.224Z,13.97
2018-09-13T00:32:17.532Z,13.00
2018-09-13T00:34:45.858Z,13.13
2018-09-13T00:37:14.151Z,12.00
2018-09-13T00:39:42.433Z,14.33
2018-09-13T00:42:10.683Z,12.27
2018-09-13T00:44:38.999Z,13.90
2018-09-13T00:47:11.627Z,12.77
2018-09-13T00:49:40.355Z,13.57
2018-09-13T00:52:08.683Z,13.40
2018-09-13T00:54:36.944Z,12.97
2018-09-13T00:57:05.235Z,11.80
2018-09-13T00:59:33.523Z,12.60
2018-09-13T01:02:01.830Z,11.60
2018-09-13T01:04:30.088Z,11.67
2018-09-13T01:06:58.382Z,11.87
2018-09-13T01:09:26.680Z,11.10
2018-09-13T01:11:54.981Z,11.97
2018-09-13T01:14:23.276Z,11.57
2018-09-13T01:16:51.540Z,10.43
2018-09-13T01:19:19.787Z,10.90
2018-09-13T01:21:48.123Z,12.13
2018-09-13T01:24:16.438Z,12.20
2018-09-13T01:26:44.684Z,13.70
2018-09-13T01:29:12.946Z,12.90
2018-09-13T01:31:41.223Z,13.23
2018-09-13T01:34:09.489Z,12.90
2018-09-13T01:36:37.767Z,13.57
2018-09-13T01:39:07.812Z,12.67
2018-09-13T01:41:36.193Z,13.57
2018-09-13T01:44:04.466Z,11.80
2018-09-13T01:46:32.727Z,13.07
2018-09-13T01:49:01.016Z,13.50
2018-09-13T01:51:29.294Z,13.83
2018-09-13T01:53:57.568Z,13.70
2018-09-13T01:56:25.840Z,13.97
2018-09-13T01:58:54.099Z,14.37
2018-09-13T02:01:22.361Z,14.70
2018-09-13T02:03:50.674Z,14.00
2018-09-13T02:06:18.930Z,15.17
2018-09-13T02:08:47.227Z,13.40
2018-09-13T02:11:15.527Z,13.70
2018-09-13T02:13:43.786Z,13.37
2018-09-13T02:16:12.054Z,13.50
2018-09-13T02:18:40.331Z,12.77
2018-09-13T02:21:08.623Z,12.77
2018-09-13T02:23:36.901Z,15.37
2018-09-13T02:26:05.186Z,13.20
2018-09-13T02:28:33.459Z,13.17
2018-09-13T02:31:01.739Z,12.73
2018-09-13T02:33:29.996Z,14.03
2018-09-13T02:35:58.267Z,14.73
2018-09-13T02:38:26.525Z,14.83
2018-09-13T02:40:54.815Z,13.07
2018-09-13T02:43:23.081Z,13.67
2018-09-13T02:45:51.331Z,13.90
2018-09-13T02:48:19.604Z,14.30
2018-09-13T02:50:47.851Z,13.87
2018-09-13T02:53:16.105Z,15.40
2018-09-13T02:55:44.403Z,14.67
2018-09-13T02:58:12.656Z,15.63
2018-09-13T03:00:40.968Z,14.90
2018-09-13T03:03:09.222Z,15.10
2018-09-13T03:05:37.492Z,15.70
2018-09-13T03:08:05.763Z,15.60
2018-09-13T03:10:34.010Z,15.80
2018-09-13T03:13:02.328Z,17.53
2018-09-13T03:15:30.619Z,16.60
2018-09-13T03:17:58.875Z,15.73
2018-09-13T03:20:27.204Z,17.23
2018-09-13T03:22:55.471Z,17.33
2018-09-13T03:25:23.719Z,18.57
2018-09-13T03:27:52.143Z,17.50
2018-09-13T03:30:20.387Z,17.10
2018-09-13T03:32:48.708Z,17.43
2018-09-13T03:35:16.972Z,18.73
2018-09-13T03:37:45.318Z,18.60
2018-09-13T03:40:13.626Z,18.07
2018-09-13T03:42:41.947Z,17.83
2018-09-13T03:45:10.217Z,18.30
2018-09-13T03:47:38.508Z,19.47
2018-09-13T03:50:06.788Z,19.40
2018-09-13T03:52:35.042Z,19.00
2018-09-13T03:55:03.324Z,19.00
2018-09-13T03:57:31.599Z,19.73
2018-09-13T03:59:59.844Z,19.20
2018-09-13T04:02:28.104Z,19.57
2018-09-13T04:04:56.374Z,20.43
2018-09-13T04:07:24.640Z,22.80
2018-09-13T04:09:52.908Z,22.90
2018-09-13T04:12:21.554Z,22.37
2018-09-13T04:14:49.815Z,21.67
2018-09-13T04:17:18.196Z,21.37
2018-09-13T04:19:47.083Z,20.00
2018-09-13T04:22:16.167Z,20.37
2018-09-13T04:24:44.698Z,22.03
2018-09-13T04:27:13.370Z,20.90
2018-09-13T04:29:41.934Z,18.80
2018-09-13T04:32:10.209Z,19.20
2018-09-13T04:34:38.566Z,19.13
2018-09-13T04:37:06.931Z,18.30
2018-09-13T04:39:35.188Z,18.90
2018-09-13T04:42:03.503Z,17.00
2018-09-13T04:44:31.797Z,17.20
2018-09-13T04:47:00.070Z,17.87
2018-09-13T04:49:28.343Z,18.23
2018-09-13T04:51:56.608Z,17.90
2018-09-13T04:54:24.882Z,15.60
2018-09-13T04:56:53.159Z,16.10
2018-09-13T04:59:21.431Z,14.80
2018-09-13T05:01:49.672Z,13.63
2018-09-13T05:04:17.923Z,14.03
2018-09-13T05:06:46.250Z,12.63
2018-09-13T05:09:15.795Z,14.33
2018-09-13T05:11:44.060Z,11.80
2018-09-13T05:14:13.046Z,12.00
2018-09-13T05:16:41.343Z,12.33
2018-09-13T05:19:09.672Z,11.83
2018-09-13T05:21:38.070Z,13.83
2018-09-13T05:24:06.352Z,13.00
2018-09-13T05:26:34.632Z,12.63
2018-09-13T05:29:02.905Z,13.07
2018-09-13T05:31:31.205Z,12.23
2018-09-13T05:33:59.446Z,14.70
2018-09-13T05:36:27.710Z,13.13
2018-09-13T05:38:56.267Z,13.80
2018-09-13T05:41:25.381Z,13.53
2018-09-13T05:43:53.662Z,14.27
2018-09-13T05:46:22.081Z,15.73
2018-09-13T05:48:50.631Z,14.23
2018-09-13T05:51:19.258Z,14.80
2018-09-13T05:53:48.379Z,14.50
2018-09-13T05:56:16.710Z,14.77
2018-09-13T05:58:45.229Z,15.00
2018-09-13T06:01:14.737Z,14.93
2018-09-13T06:03:43.341Z,14.37
2018-09-13T06:06:11.920Z,14.83
2018-09-13T06:08:40.399Z,13.63
2018-09-13T06:11:08.861Z,14.87
2018-09-13T06:13:37.610Z,14.73
2018-09-13T06:16:05.916Z,14.30
2018-09-13T06:18:34.300Z,12.83
2018-09-13T06:21:02.624Z,12.80
2018-09-13T06:23:30.872Z,13.93
2018-09-13T06:25:59.155Z,14.70
2018-09-13T06:28:27.438Z,14.10
2018-09-13T06:30:55.703Z,14.80
2018-09-13T06:33:24.110Z,12.37
2018-09-13T06:35:52.382Z,13.90
2018-09-13T06:38:20.775Z,12.90
2018-09-13T06:40:48.914Z,12.50
2018-09-13T06:43:17.174Z,12.53
2018-09-13T06:45:45.410Z,12.43
2018-09-13T06:48:13.753Z,11.80
2018-09-13T06:50:42.045Z,12.70
2018-09-13T06:53:11.155Z,10.30
2018-09-13T06:55:39.406Z,12.60
2018-09-13T06:58:07.664Z,12.17
2018-09-13T07:00:35.961Z,10.30
2018-09-13T07:03:04.297Z,11.27
2018-09-13T07:05:32.577Z,11.47
2018-09-13T07:08:00.881Z,11.57
2018-09-13T07:10:29.255Z,12.50
2018-09-13T07:12:57.630Z,11.97
2018-09-13T07:15:25.914Z,14.03
2018-09-13T07:17:54.224Z,11.40
2018-09-13T07:20:22.489Z,11.80
2018-09-13T07:22:52.023Z,12.80
2018-09-13T07:25:22.291Z,12.50
2018-09-13T07:27:52.094Z,13.03
2018-09-13T07:30:22.534Z,12.53
2018-09-13T07:32:53.158Z,11.57
2018-09-13T07:35:22.625Z,12.27
2018-09-13T07:38:08.134Z,12.20
2018-09-13T07:40:38.355Z,12.97
2018-09-13T07:43:07.230Z,13.00
2018-09-13T07:45:35.547Z,12.67
2018-09-13T07:48:03.800Z,12.93
2018-09-13T07:50:32.046Z,13.60
2018-09-13T07:53:00.402Z,13.40
2018-09-13T07:55:28.639Z,13.57
2018-09-13T07:57:56.999Z,15.67
2018-09-13T08:00:25.241Z,15.13
2018-09-13T08:02:53.486Z,14.63
2018-09-13T08:05:21.762Z,14.83
2018-09-13T08:07:50.105Z,14.20
2018-09-13T08:10:18.495Z,14.90
2018-09-13T08:12:46.887Z,14.50
2018-09-13T08:15:15.146Z,15.00
2018-09-13T08:17:44.673Z,17.97
2018-09-13T08:20:14.172Z,15.77
2018-09-13T08:22:44.376Z,14.53
2018-09-13T08:25:16.917Z,13.47
2018-09-13T08:27:45.420Z,11.67
2018-09-13T08:30:14.050Z,11.17
2018-09-13T08:32:42.539Z,11.73
2018-09-13T08:35:11.023Z,11.70
2018-09-13T08:37:40.985Z,10.93
2018-09-13T08:40:12.083Z,10.10
2018-09-13T08:42:40.986Z,10.20
2018-09-13T08:45:10.132Z,10.27
2018-09-13T08:47:39.609Z,11.77
2018-09-13T08:50:09.979Z,11.80
2018-09-13T08:52:39.252Z,13.00
2018-09-13T08:58:22.207Z,10.87
2018-09-13T09:00:53.322Z,13.00
2018-09-13T09:03:23.272Z,11.23
2018-09-13T09:05:53.303Z,13.83
2018-09-13T09:08:24.839Z,12.77
2018-09-13T09:10:55.197Z,13.30
2018-09-13T09:13:33.899Z,13.30
2018-09-13T09:16:04.627Z,11.37
2018-09-13T09:18:37.350Z,15.60
2018-09-13T09:21:07.625Z,13.47
2018-09-13T09:23:39.675Z,12.80
2018-09-13T09:26:07.964Z,13.13
2018-09-13T09:28:38.316Z,13.07
2018-09-13T09:31:06.672Z,13.13
2018-09-13T09:33:34.964Z,10.83
2018-09-13T09:36:03.364Z,12.00
2018-09-13T09:38:32.364Z,11.20
2018-09-13T09:41:00.794Z,10.67
2018-09-13T09:43:29.383Z,10.90
2018-09-13T09:45:57.770Z,11.47
2018-09-13T09:48:43.393Z,11.23
2018-09-13T09:51:12.123Z,10.37
2018-09-13T09:53:40.567Z,10.27
2018-09-13T09:56:08.870Z,10.43
2018-09-13T09:58:37.409Z,12.03
2018-09-13T10:01:11.615Z,9.20
2018-09-13T10:03:40.191Z,9.43
2018-09-13T10:06:09.188Z,11.53
2018-09-13T10:08:37.914Z,9.57
2018-09-13T10:11:06.678Z,9.13
2018-09-13T10:13:35.033Z,9.20
2018-09-13T10:16:08.699Z,8.10
2018-09-13T10:18:44.727Z,8.77
2018-09-13T10:21:18.476Z,7.83
2018-09-13T10:23:52.172Z,6.77
2018-09-13T10:26:26.146Z,7.37
2018-09-13T10:29:00.007Z,6.40
2018-09-13T10:31:33.653Z,6.17
2018-09-13T10:34:07.376Z,6.10
2018-09-13T10:36:40.922Z,6.10
2018-09-13T10:39:14.674Z,6.03
2018-09-13T10:41:48.350Z,5.40
2018-09-13T10:44:21.911Z,6.07
2018-09-13T10:46:55.518Z,5.70
2018-09-13T10:49:29.037Z,5.40
2018-09-13T10:52:08.974Z,5.50
2018-09-13T10:54:39.531Z,5.90
2018-09-13T10:57:13.249Z,5.53
2018-09-13T10:59:41.678Z,6.00
2018-09-13T11:02:10.662Z,6.60
2018-09-13T11:04:39.047Z,5.70
2018-09-13T11:07:08.882Z,6.10
2018-09-13T11:09:37.212Z,6.13
2018-09-13T11:12:06.594Z,7.20
2018-09-13T11:14:38.235Z,6.50
2018-09-13T11:17:06.618Z,7.43
2018-09-13T11:19:34.995Z,6.97
2018-09-13T11:22:03.449Z,6.73
2018-09-13T11:24:31.863Z,7.07
2018-09-13T11:27:00.450Z,7.80
2018-09-13T11:29:28.835Z,7.23
2018-09-13T11:31:57.155Z,6.97
2018-09-13T11:34:25.496Z,7.40
2018-09-13T11:36:53.805Z,7.27
2018-09-13T11:39:22.222Z,7.93
2018-09-13T11:41:50.511Z,7.53
2018-09-13T11:44:18.805Z,10.00
2018-09-13T11:46:47.100Z,12.57
2018-09-13T11:49:15.431Z,11.70
2018-09-13T11:51:43.734Z,10.13
2018-09-13T11:54:11.979Z,9.73
2018-09-13T11:56:40.271Z,10.87
2018-09-13T11:59:08.527Z,9.50
2018-09-13T12:01:36.823Z,11.43
2018-09-13T12:04:05.099Z,13.20
2018-09-13T12:06:33.367Z,13.87
2018-09-13T12:09:01.707Z,13.97
2018-09-13T12:11:29.920Z,13.47
2018-09-13T12:13:58.145Z,14.23
2018-09-13T12:16:26.426Z,13.83
2018-09-13T12:18:54.651Z,13.40
2018-09-13T12:21:22.940Z,12.33
2018-09-13T12:23:51.255Z,13.50
2018-09-13T12:26:19.548Z,11.93
2018-09-13T12:28:47.819Z,11.50
2018-09-13T12:31:16.061Z,12.07
2018-09-13T12:33:44.341Z,14.00
2018-09-13T12:36:12.557Z,11.83
2018-09-13T12:38:40.823Z,11.03
2018-09-13T12:41:09.079Z,13.00
2018-09-13T12:43:37.343Z,13.10
2018-09-13T12:46:05.595Z,13.20
2018-09-13T12:48:33.856Z,14.07
2018-09-13T12:51:02.089Z,13.70
2018-09-13T12:53:30.342Z,15.03
2018-09-13T12:55:58.566Z,13.20
2018-09-13T12:58:27.143Z,12.50
2018-09-13T13:00:55.443Z,12.73
2018-09-13T13:03:23.714Z,12.50
2018-09-13T13:05:52.131Z,12.67
2018-09-13T13:08:20.420Z,13.47
2018-09-13T13:10:48.663Z,12.37
2018-09-13T13:13:16.984Z,12.20
2018-09-13T13:15:45.224Z,13.67
2018-09-13T13:18:13.462Z,13.27
2018-09-13T13:20:41.762Z,12.53
2018-09-13T13:23:10.008Z,12.90
2018-09-13T13:25:38.275Z,12.63
2018-09-13T13:28:06.545Z,12.67
2018-09-13T13:30:34.804Z,10.73
2018-09-13T13:33:03.107Z,10.87
2018-09-13T13:35:31.359Z,10.80
2018-09-13T13:37:59.643Z,12.10
2018-09-13T13:40:27.932Z,12.40
2018-09-13T13:42:56.152Z,11.13
2018-09-13T13:45:24.420Z,11.47
2018-09-13T13:47:52.663Z,10.63
2018-09-13T13:50:20.902Z,12.23
2018-09-13T13:52:49.157Z,12.07
2018-09-13T13:55:17.435Z,10.70
2018-09-13T13:57:45.708Z,11.60
2018-09-13T14:00:13.997Z,11.77
2018-09-13T14:02:42.250Z,11.63
2018-09-13T14:05:10.532Z,10.40
2018-09-13T14:07:38.789Z,10.93
2018-09-13T14:10:07.197Z,9.80
2018-09-13T14:12:35.323Z,10.67
2018-09-13T14:15:03.634Z,11.30
2018-09-13T14:17:31.879Z,12.30
2018-09-13T14:20:00.168Z,11.50
2018-09-13T14:22:28.498Z,11.30
2018-09-13T14:24:56.743Z,9.50
2018-09-13T14:27:25.007Z,10.40
2018-09-13T14:29:53.301Z,10.37
2018-09-13T14:32:21.507Z,10.47
2018-09-13T14:34:49.818Z,10.93
2018-09-13T14:37:18.106Z,10.90
2018-09-13T14:39:46.395Z,10.80
2018-09-13T14:42:14.643Z,10.40
2018-09-13T14:44:43.063Z,12.23
2018-09-13T14:47:11.364Z,11.87
2018-09-13T14:49:39.792Z,11.87
2018-09-13T14:52:08.735Z,10.93
2018-09-13T14:54:38.296Z,11.10
2018-09-13T14:57:10.992Z,11.47
2018-09-13T14:59:40.404Z,11.13
2018-09-13T15:02:09.223Z,11.40
2018-09-13T15:04:38.476Z,11.70
2018-09-13T15:07:09.167Z,12.30
2018-09-13T15:09:38.024Z,11.10
2018-09-13T15:12:06.311Z,10.70
2018-09-13T15:14:34.667Z,11.23
2018-09-13T15:17:03.622Z,10.83
2018-09-13T15:19:32.439Z,11.80
2018-09-13T15:22:01.578Z,11.07
2018-09-13T15:24:31.940Z,10.87
2018-09-13T15:27:00.235Z,9.20
2018-09-13T15:29:29.327Z,9.00
2018-09-13T15:31:59.014Z,8.30
2018-09-13T15:34:27.613Z,9.23
2018-09-13T15:36:56.171Z,9.00
2018-09-13T15:39:24.563Z,9.10
2018-09-13T15:41:54.833Z,9.67
2018-09-13T15:44:24.023Z,8.93
2018-09-13T15:46:52.590Z,9.43
2018-09-13T15:49:22.001Z,10.80
2018-09-13T15:51:50.622Z,10.07
2018-09-13T15:54:18.878Z,9.97
2018-09-13T15:56:48.183Z,11.17
2018-09-13T15:59:16.592Z,11.37
2018-09-13T16:01:45.042Z,11.23
2018-09-13T16:04:13.366Z,11.40
2018-09-13T16:06:41.992Z,12.57
2018-09-13T16:09:10.605Z,11.30
2018-09-13T16:11:39.044Z,11.40
2018-09-13T16:14:08.046Z,10.67
2018-09-13T16:16:37.102Z,10.90
2018-09-13T16:19:07.151Z,11.10
2018-09-13T16:21:36.030Z,10.00
2018-09-13T16:24:04.367Z,10.03
2018-09-13T16:26:32.909Z,10.83
2018-09-13T16:29:00.974Z,10.17
2018-09-13T16:31:29.320Z,10.20
2018-09-13T16:33:57.714Z,10.60
2018-09-13T16:36:28.337Z,10.13
2018-09-13T16:40:02.459Z,10.57
2018-09-13T16:42:42.873Z,10.23
2018-09-13T16:45:15.743Z,10.77
2018-09-13T16:47:51.343Z,11.47
2018-09-13T16:50:19.696Z,11.13
2018-09-13T16:52:48.101Z,11.40
2018-09-13T16:55:16.365Z,11.30
2018-09-13T16:57:44.634Z,10.70
2018-09-13T17:00:12.941Z,11.70
2018-09-13T17:02:41.258Z,12.70
2018-09-13T17:05:09.555Z,12.37
2018-09-13T17:07:37.884Z,13.07
2018-09-13T17:10:06.440Z,12.90
2018-09-13T17:12:34.859Z,13.20
2018-09-13T17:15:03.413Z,13.20
2018-09-13T17:17:31.705Z,12.87
2018-09-13T17:20:00.063Z,14.30
2018-09-13T17:22:28.408Z,11.90
2018-09-13T17:24:56.888Z,12.53
2018-09-13T17:27:25.168Z,13.27
2018-09-13T17:29:53.451Z,12.80
2018-09-13T17:32:21.736Z,12.03
2018-09-13T17:34:50.022Z,12.03
2018-09-13T17:37:18.247Z,12.80
2018-09-13T17:39:46.503Z,13.23
2018-09-13T17:42:14.788Z,12.70
2018-09-13T17:44:43.028Z,12.43
2018-09-13T17:47:11.250Z,12.20
2018-09-13T17:49:39.482Z,13.00
2018-09-13T17:52:07.937Z,12.50
2018-09-13T17:54:36.183Z,11.47
2018-09-13T17:57:04.647Z,12.43
2018-09-13T17:59:32.899Z,12.37
2018-09-13T18:02:01.187Z,11.83
2018-09-13T18:04:29.447Z,13.40
2018-09-13T18:06:57.770Z,13.90
2018-09-13T18:09:26.101Z,12.87
2018-09-13T18:11:54.316Z,12.60
2018-09-13T18:14:22.570Z,13.17
2018-09-13T18:16:50.834Z,11.60
2018-09-13T18:19:19.075Z,13.63
2018-09-13T18:21:47.342Z,13.23
2018-09-13T18:24:15.640Z,12.70
2018-09-13T18:26:43.898Z,13.70
2018-09-13T18:29:12.178Z,13.60
2018-09-13T18:31:40.457Z,13.33
2018-09-13T18:34:08.715Z,13.73
2018-09-13T18:36:36.979Z,14.50
2018-09-13T18:39:07.674Z,14.20
2018-09-13T18:41:35.928Z,13.10
2018-09-13T18:44:04.188Z,12.33
2018-09-13T18:46:32.442Z,13.80
2018-09-13T18:49:00.678Z,13.50
2018-09-13T18:51:28.925Z,13.40
2018-09-13T18:53:57.232Z,13.60
2018-09-13T18:56:25.455Z,12.60
2018-09-13T18:58:53.699Z,10.80
2018-09-13T19:01:21.963Z,12.73
2018-09-13T19:03:50.385Z,13.27
2018-09-13T19:06:18.727Z,13.90
2018-09-13T19:08:46.978Z,13.70
2018-09-13T19:11:15.312Z,14.27
2018-09-13T19:13:43.491Z,14.50
2018-09-13T19:16:11.848Z,15.70
2018-09-13T19:18:40.168Z,15.93
2018-09-13T19:21:08.450Z,14.53
2018-09-13T19:23:36.705Z,15.13
2018-09-13T19:26:05.034Z,15.83
2018-09-13T19:28:33.305Z,14.50
2018-09-13T19:31:01.567Z,14.90
2018-09-13T19:33:29.807Z,15.00
2018-09-13T19:35:58.096Z,14.37
2018-09-13T19:38:26.449Z,15.57
2018-09-13T19:40:54.778Z,15.00
2018-09-13T19:43:23.068Z,15.77
2018-09-13T19:45:51.447Z,14.30
2018-09-13T19:48:19.700Z,14.50
2018-09-13T19:50:47.982Z,15.70
2018-09-13T19:53:16.248Z,15.20
2018-09-13T19:55:44.523Z,15.23
2018-09-13T19:58:12.864Z,15.00
2018-09-13T20:00:41.145Z,17.03
2018-09-13T20:03:09.560Z,16.83
2018-09-13T20:05:37.699Z,16.60
2018-09-13T20:08:06.189Z,16.83
2018-09-13T20:10:34.471Z,16.50
2018-09-13T20:13:05.252Z,18.03
2018-09-13T20:15:33.495Z,16.33
2018-09-13T20:18:01.889Z,15.57
2018-09-13T20:20:30.118Z,15.83
2018-09-13T20:22:59.404Z,18.57
2018-09-13T20:25:27.609Z,17.97
2018-09-13T20:27:55.882Z,17.33
2018-09-13T20:30:24.133Z,17.33
2018-09-13T20:32:52.800Z,16.63
2018-09-13T20:35:22.098Z,17.43
2018-09-13T20:37:50.735Z,16.53
2018-09-13T20:40:19.037Z,18.20
2018-09-13T20:42:48.432Z,16.70
2018-09-13T20:45:16.644Z,18.43
2018-09-13T20:47:45.063Z,18.37
2018-09-13T20:50:13.352Z,18.07
2018-09-13T20:52:41.616Z,19.17
2018-09-13T20:55:09.959Z,18.80
2018-09-13T20:57:39.189Z,17.53
2018-09-13T21:00:07.477Z,17.30
2018-09-13T21:02:35.859Z,17.77
2018-09-13T21:05:04.234Z,18.07
2018-09-13T21:07:32.499Z,18.20
2018-09-13T21:10:03.383Z,17.63
2018-09-13T21:12:31.660Z,17.30
2018-09-13T21:14:59.986Z,17.40
2018-09-13T21:17:28.626Z,17.80
2018-09-13T21:19:57.123Z,18.10
2018-09-13T21:22:25.405Z,18.30
2018-09-13T21:24:53.960Z,18.60
2018-09-13T21:27:22.365Z,19.17
2018-09-13T21:29:50.679Z,19.37
2018-09-13T21:32:18.974Z,20.00
2018-09-13T21:34:47.219Z,19.73
2018-09-13T21:37:15.470Z,19.77
2018-09-13T21:39:43.796Z,19.33
2018-09-13T21:42:12.179Z,18.57
2018-09-13T21:44:40.427Z,18.43
2018-09-13T21:47:08.719Z,19.57
2018-09-13T21:49:36.954Z,19.33
2018-09-13T21:52:05.311Z,20.43
2018-09-13T21:54:33.612Z,19.43
2018-09-13T21:57:01.928Z,19.87
2018-09-13T21:59:30.197Z,18.13
2018-09-13T22:01:58.475Z,19.97
2018-09-13T22:04:26.711Z,20.70
2018-09-13T22:06:54.991Z,20.10
2018-09-13T22:09:23.239Z,19.73
2018-09-13T22:11:51.503Z,19.83
2018-09-13T22:14:19.827Z,20.37
2018-09-13T22:16:48.090Z,19.27
2018-09-13T22:19:16.346Z,20.60
2018-09-13T22:21:44.664Z,19.10
2018-09-13T22:24:12.902Z,19.03
2018-09-13T22:26:41.249Z,19.63
2018-09-13T22:29:09.585Z,18.90
2018-09-13T22:31:37.807Z,18.87
2018-09-13T22:34:07.528Z,20.37
2018-09-13T22:36:36.379Z,19.83
2018-09-13T22:39:07.728Z,19.13
2018-09-13T22:41:36.428Z,19.97
2018-09-13T22:44:04.705Z,17.87
2018-09-13T22:46:32.954Z,18.77
2018-09-13T22:49:01.233Z,19.40
2018-09-13T22:51:29.460Z,20.20
2018-09-13T22:53:57.736Z,20.77
2018-09-13T22:56:26.007Z,21.00
2018-09-13T22:58:54.285Z,18.87
2018-09-13T23:01:22.558Z,20.57
2018-09-13T23:03:50.799Z,21.70
2018-09-13T23:06:19.042Z,18.90
2018-09-13T23:08:47.321Z,18.73
2018-09-13T23:11:15.575Z,20.50
2018-09-13T23:13:43.880Z,18.77
2018-09-13T23:16:12.120Z,20.10
2018-09-13T23:18:40.369Z,18.60
2018-09-13T23:21:08.661Z,18.90
2018-09-13T23:23:36.945Z,20.57
2018-09-13T23:26:05.210Z,18.77
2018-09-13T23:28:33.457Z,20.00
2018-09-13T23:31:01.824Z,19.50
2018-09-13T23:33:30.097Z,20.30
2018-09-13T23:35:58.391Z,20.97
2018-09-13T23:38:26.652Z,20.73
2018-09-13T23:40:54.901Z,21.27
2018-09-13T23:43:23.243Z,21.60
2018-09-13T23:45:51.472Z,22.23
2018-09-13T23:48:19.731Z,23.80
2018-09-13T23:50:47.988Z,22.00
2018-09-13T23:53:16.261Z,23.53
2018-09-13T23:55:44.527Z,21.50
2018-09-13T23:58:12.763Z,22.90
